Time;durP1;ratioP1;P1;durP2;ratioP2;P2;SDS_P1;SDS_P2;PMS_P1;PMS_P2;Temp;Humidity;BMP_temperature;BMP_pressure;BME280_temperature;BME280_humidity;BME280_pressure;Samples;Min_cycle;Max_cycle;Signal;HPM_P1;HPM_P2
2023/08/29 00:01:28;;;;;;;3.57;3.27;;;18.30;99.90;;;;;;4954018;29;20197;-76
2023/08/29 00:03:56;;;;;;;4.10;3.57;;;18.30;99.90;;;;;;4939524;29;20593;-77
2023/08/29 00:06:22;;;;;;;4.00;3.47;;;18.30;99.90;;;;;;4939621;29;20818;-76
2023/08/29 00:08:47;;;;;;;4.70;3.73;;;18.30;99.90;;;;;;4938177;29;20593;-76
2023/08/29 00:11:13;;;;;;;4.03;3.40;;;18.30;99.90;;;;;;4938385;29;20223;-76
2023/08/29 00:13:39;;;;;;;4.60;3.07;;;18.30;99.90;;;;;;4935451;29;20302;-76
2023/08/29 00:16:05;;;;;;;3.27;2.97;;;18.20;99.90;;;;;;4935496;29;20267;-75
2023/08/29 00:18:31;;;;;;;3.93;3.33;;;18.20;99.90;;;;;;4936188;29;20189;-75
2023/08/29 00:20:56;;;;;;;4.50;3.30;;;18.10;99.90;;;;;;4936137;29;20623;-76
2023/08/29 00:23:22;;;;;;;4.90;3.40;;;18.10;99.90;;;;;;4936324;29;21181;-76
2023/08/29 00:25:50;;;;;;;4.20;3.53;;;18.00;99.90;;;;;;4951108;29;20185;-76
2023/08/29 00:28:16;;;;;;;3.37;2.70;;;18.00;99.90;;;;;;4935874;29;20237;-76
2023/08/29 00:30:41;;;;;;;4.93;4.10;;;17.90;99.90;;;;;;4935056;29;20629;-76
2023/08/29 00:33:09;;;;;;;4.90;4.47;;;17.80;99.90;;;;;;4936362;29;20307;-76
2023/08/29 00:35:36;;;;;;;3.20;2.63;;;17.80;99.90;;;;;;4937401;29;20185;-76
2023/08/29 00:38:03;;;;;;;5.50;3.30;;;17.70;99.90;;;;;;4936041;29;20695;-76
2023/08/29 00:40:32;;;;;;;4.27;3.87;;;17.60;99.90;;;;;;4935029;29;20595;-76
2023/08/29 00:42:59;;;;;;;6.00;4.17;;;17.60;99.90;;;;;;4935198;29;20620;-76
2023/08/29 00:45:32;;;;;;;3.80;3.50;;;17.50;99.90;;;;;;4938144;29;20690;-76
2023/08/29 00:48:00;;;;;;;4.60;4.20;;;17.50;99.90;;;;;;4935831;29;20608;-75
2023/08/29 00:50:27;;;;;;;5.63;5.13;;;17.50;99.90;;;;;;4934664;29;20601;-76
2023/08/29 00:52:58;;;;;;;4.87;4.43;;;17.40;99.90;;;;;;4934752;29;20739;-76
2023/08/29 00:55:25;;;;;;;5.97;4.80;;;17.40;99.90;;;;;;4935925;29;20971;-76
2023/08/29 00:57:56;;;;;;;6.40;5.80;;;17.40;99.90;;;;;;4922230;29;20736;-76
2023/08/29 01:00:24;;;;;;;5.47;4.97;;;17.40;99.90;;;;;;4934578;29;20681;-76
2023/08/29 01:02:49;;;;;;;5.30;4.80;;;17.50;99.90;;;;;;4910357;29;20593;-76
2023/08/29 01:05:15;;;;;;;4.43;4.13;;;17.50;99.90;;;;;;4923164;29;20657;-76
2023/08/29 01:07:41;;;;;;;5.57;5.07;;;17.50;99.90;;;;;;4931306;29;20573;-75
2023/08/29 01:10:07;;;;;;;5.70;5.20;;;17.50;99.90;;;;;;4936951;29;20536;-75
2023/08/29 01:12:42;;;;;;;6.10;5.60;;;17.60;99.90;;;;;;4934121;29;21249;-76
2023/08/29 01:15:17;;;;;;;5.60;5.17;;;17.60;99.90;;;;;;4910675;29;20577;-76
2023/08/29 01:17:51;;;;;;;6.77;6.17;;;17.60;99.90;;;;;;4916120;29;21274;-76
2023/08/29 01:20:18;;;;;;;5.77;5.27;;;17.60;99.90;;;;;;4926621;29;20632;-76
2023/08/29 01:22:52;;;;;;;6.97;6.30;;;17.60;99.90;;;;;;4933061;29;20601;-76
2023/08/29 01:25:39;;;;;;;6.33;5.73;;;17.60;99.90;;;;;;4926576;29;20669;-76
2023/08/29 01:28:06;;;;;;;6.73;5.57;;;17.60;99.90;;;;;;4922811;29;21046;-76
2023/08/29 01:30:33;;;;;;;5.20;4.80;;;17.70;99.90;;;;;;4933741;29;20688;-76
2023/08/29 01:32:59;;;;;;;6.67;6.07;;;17.70;99.90;;;;;;4949715;29;20638;-76
2023/08/29 01:35:25;;;;;;;7.50;6.90;;;17.70;99.90;;;;;;4949893;29;20663;-76
2023/08/29 01:37:53;;;;;;;6.70;6.00;;;17.70;99.90;;;;;;4933311;29;20597;-76
2023/08/29 01:40:18;;;;;;;6.90;6.30;;;17.70;99.90;;;;;;4933782;29;21006;-76
2023/08/29 01:42:44;;;;;;;6.97;6.37;;;17.70;99.90;;;;;;4917744;29;20678;-76
2023/08/29 01:45:10;;;;;;;6.70;6.17;;;17.80;99.90;;;;;;4917997;29;20188;-76
2023/08/29 01:47:36;;;;;;;7.80;7.07;;;17.80;99.90;;;;;;4935020;29;20180;-76
2023/08/29 01:50:03;;;;;;;7.50;6.90;;;17.80;99.90;;;;;;4933444;29;20192;-76
2023/08/29 01:52:32;;;;;;;7.67;6.50;;;17.80;99.90;;;;;;4933258;29;20216;-76
2023/08/29 01:54:58;;;;;;;7.40;6.70;;;17.80;99.90;;;;;;4934507;29;21002;-77
2023/08/29 01:57:27;;;;;;;7.57;6.97;;;17.80;99.90;;;;;;4934753;29;21132;-76
2023/08/29 01:59:53;;;;;;;7.63;6.93;;;17.80;99.90;;;;;;4925342;29;20581;-76
2023/08/29 02:02:20;;;;;;;7.23;6.50;;;17.90;99.90;;;;;;4925526;29;20621;-76
2023/08/29 02:09:22;;;;;;;6.93;6.30;;;17.90;99.90;;;;;;4933663;29;20589;-75
2023/08/29 02:11:48;;;;;;;7.90;7.10;;;17.90;99.90;;;;;;4948812;28;20751;-75
2023/08/29 02:14:14;;;;;;;7.20;6.50;;;17.90;99.90;;;;;;4933323;29;20681;-75
2023/08/29 02:16:39;;;;;;;7.77;7.10;;;17.90;99.90;;;;;;4933095;29;20173;-75
2023/08/29 02:19:05;;;;;;;8.73;7.90;;;17.90;99.90;;;;;;4939525;29;20811;-75
2023/08/29 02:21:31;;;;;;;7.23;6.57;;;17.90;99.90;;;;;;4948973;29;20223;-75
2023/08/29 02:24:02;;;;;;;7.07;6.47;;;17.90;99.90;;;;;;4938103;29;20585;-75
2023/08/29 02:26:28;;;;;;;8.07;7.20;;;17.90;99.90;;;;;;4933147;29;20264;-76
2023/08/29 02:28:54;;;;;;;9.20;8.30;;;18.00;99.90;;;;;;4931977;29;20724;-76
2023/08/29 02:31:20;;;;;;;9.30;8.40;;;17.90;99.90;;;;;;4948728;29;20244;-76
2023/08/29 02:33:47;;;;;;;8.07;7.20;;;18.00;99.90;;;;;;4948498;29;20268;-76
2023/08/29 02:36:12;;;;;;;8.13;7.30;;;18.00;99.90;;;;;;4931908;29;20688;-76
2023/08/29 02:38:38;;;;;;;9.30;7.93;;;18.00;99.90;;;;;;4932490;29;20585;-76
2023/08/29 02:41:05;;;;;;;8.33;7.53;;;18.00;99.90;;;;;;4948705;29;20193;-76
2023/08/29 02:43:31;;;;;;;8.97;7.30;;;18.00;99.90;;;;;;4932647;29;20688;-76
2023/08/29 02:45:58;;;;;;;7.33;6.63;;;18.00;99.90;;;;;;4929728;29;21211;-75
2023/08/29 02:48:24;;;;;;;8.97;8.10;;;18.00;99.90;;;;;;4920433;29;20181;-75
2023/08/29 02:50:50;;;;;;;8.33;7.60;;;18.00;99.90;;;;;;4932408;29;21049;-76
2023/08/29 02:53:19;;;;;;;8.97;8.20;;;17.90;99.90;;;;;;4933875;29;20683;-75
2023/08/29 02:55:48;;;;;;;7.17;6.47;;;17.90;99.90;;;;;;4933647;29;20540;-75
2023/08/29 02:58:14;;;;;;;8.40;7.50;;;17.90;99.90;;;;;;4932332;29;20676;-76
2023/08/29 03:00:40;;;;;;;7.37;6.77;;;17.90;99.90;;;;;;4933387;29;20628;-75
2023/08/29 03:03:06;;;;;;;8.03;6.93;;;17.90;99.90;;;;;;4916612;29;20185;-75
2023/08/29 03:05:32;;;;;;;8.57;7.33;;;17.90;99.90;;;;;;4948433;29;20173;-76
2023/08/29 03:08:07;;;;;;;9.57;8.63;;;17.90;99.90;;;;;;4932535;29;20611;-76
2023/08/29 03:10:36;;;;;;;7.67;6.93;;;17.80;99.90;;;;;;4920972;29;20651;-76
2023/08/29 03:13:02;;;;;;;8.77;6.93;;;17.80;99.90;;;;;;4916589;29;21069;-76
2023/08/29 03:15:33;;;;;;;8.10;7.43;;;17.80;99.90;;;;;;4932796;29;20600;-76
2023/08/29 03:17:59;;;;;;;8.53;7.73;;;17.80;99.90;;;;;;4948476;29;20596;-76
2023/08/29 03:20:26;;;;;;;8.13;7.33;;;17.80;99.90;;;;;;4932054;29;20648;-76
2023/08/29 03:22:53;;;;;;;8.67;7.90;;;17.70;99.90;;;;;;4932673;29;20605;-76
2023/08/29 03:25:22;;;;;;;7.67;6.87;;;17.70;99.90;;;;;;4944099;29;20208;-76
2023/08/29 03:27:47;;;;;;;8.90;8.00;;;17.70;99.90;;;;;;4932163;29;20605;-76
2023/08/29 03:30:14;;;;;;;8.17;7.47;;;17.70;99.90;;;;;;4932321;29;20593;-76
2023/08/29 03:32:40;;;;;;;8.67;7.87;;;17.70;99.90;;;;;;4912154;29;20275;-76
2023/08/29 03:35:07;;;;;;;9.90;8.50;;;17.70;99.90;;;;;;4943065;29;20585;-78
2023/08/29 03:37:33;;;;;;;9.03;8.00;;;17.60;99.90;;;;;;4948479;29;20572;-78
2023/08/29 03:39:59;;;;;;;8.90;8.00;;;17.60;99.90;;;;;;4968975;29;20616;-78
2023/08/29 03:42:25;;;;;;;9.07;8.13;;;17.60;99.90;;;;;;4987235;28;21233;-79
2023/08/29 03:44:50;;;;;;;7.50;6.80;;;17.60;99.90;;;;;;4956146;28;20241;-79
2023/08/29 03:47:17;;;;;;;7.17;6.43;;;17.60;99.90;;;;;;4956946;29;20184;-77
2023/08/29 03:49:44;;;;;;;9.97;8.97;;;17.60;99.90;;;;;;4942138;29;20220;-79
2023/08/29 03:52:23;;;;;;;9.20;8.30;;;17.60;99.90;;;;;;4949965;29;20720;-79
2023/08/29 03:54:58;;;;;;;10.67;9.37;;;17.60;99.90;;;;;;4941241;29;20596;-77
2023/08/29 03:57:24;;;;;;;9.13;8.33;;;17.50;99.90;;;;;;4957733;29;20584;-78
2023/08/29 03:59:50;;;;;;;10.90;9.03;;;17.50;99.90;;;;;;4940675;29;20588;-78
2023/08/29 04:02:17;;;;;;;9.03;8.23;;;17.50;99.90;;;;;;4972804;29;20620;-78
2023/08/29 04:04:44;;;;;;;9.10;8.20;;;17.50;99.90;;;;;;4957374;29;20637;-78
2023/08/29 04:07:12;;;;;;;11.10;9.90;;;17.50;99.90;;;;;;4956555;29;20592;-79
2023/08/29 04:09:39;;;;;;;9.07;8.33;;;17.50;99.90;;;;;;4953112;29;20609;-78
2023/08/29 04:12:08;;;;;;;10.13;9.20;;;17.50;99.90;;;;;;4960928;29;20660;-78
2023/08/29 04:14:35;;;;;;;9.50;8.67;;;17.50;99.90;;;;;;4949475;29;20595;-78
2023/08/29 04:17:01;;;;;;;8.93;7.93;;;17.50;99.90;;;;;;4939137;29;20590;-78
2023/08/29 04:19:26;;;;;;;10.30;9.30;;;17.50;99.90;;;;;;4955055;29;21020;-78
2023/08/29 04:21:52;;;;;;;9.90;8.20;;;17.40;99.90;;;;;;4955540;29;20628;-77
2023/08/29 04:24:18;;;;;;;9.60;8.63;;;17.40;99.90;;;;;;4950806;29;20192;-77
2023/08/29 04:26:43;;;;;;;9.90;8.90;;;17.40;99.90;;;;;;4943392;29;20189;-77
2023/08/29 04:29:09;;;;;;;10.57;9.57;;;17.40;99.90;;;;;;4946730;29;20750;-77
2023/08/29 04:31:35;;;;;;;9.53;8.63;;;17.40;99.90;;;;;;4949386;29;20263;-78
2023/08/29 04:34:01;;;;;;;8.63;7.73;;;17.40;99.90;;;;;;4947737;29;20702;-77
2023/08/29 04:36:27;;;;;;;9.07;8.23;;;17.40;99.90;;;;;;4948048;29;20240;-77
2023/08/29 04:38:52;;;;;;;10.83;9.83;;;17.30;99.90;;;;;;4947380;29;20593;-77
2023/08/29 04:41:18;;;;;;;11.03;9.90;;;17.30;99.90;;;;;;4945571;29;20233;-77
2023/08/29 04:43:44;;;;;;;14.80;9.37;;;17.30;99.90;;;;;;4944967;29;20185;-77
2023/08/29 04:46:10;;;;;;;10.10;9.10;;;17.30;99.90;;;;;;4926485;29;20185;-76
2023/08/29 04:48:37;;;;;;;11.20;9.90;;;17.30;99.90;;;;;;4937002;29;20621;-77
2023/08/29 04:51:06;;;;;;;9.77;8.87;;;17.30;99.90;;;;;;4915539;29;20221;-78
2023/08/29 04:53:32;;;;;;;10.33;9.33;;;17.30;99.90;;;;;;4942733;29;20646;-78
2023/08/29 04:56:03;;;;;;;10.87;9.93;;;17.30;99.90;;;;;;4947016;29;20591;-78
2023/08/29 04:58:33;;;;;;;12.13;10.30;;;17.30;99.90;;;;;;4942001;29;21207;-78
2023/08/29 05:01:00;;;;;;;10.70;9.40;;;17.30;99.90;;;;;;4944820;29;20627;-78
2023/08/29 05:03:26;;;;;;;10.37;9.37;;;17.30;99.90;;;;;;4946851;29;20581;-78
2023/08/29 05:05:52;;;;;;;11.73;10.73;;;17.30;99.90;;;;;;4945724;29;20611;-77
2023/08/29 05:08:18;;;;;;;12.07;9.43;;;17.30;99.90;;;;;;4904236;29;20186;-78
2023/08/29 05:10:44;;;;;;;14.47;10.30;;;17.30;99.90;;;;;;4934581;29;20672;-78
2023/08/29 05:13:10;;;;;;;14.53;8.37;;;17.30;99.90;;;;;;4937160;29;20208;-78
2023/08/29 05:15:38;;;;;;;11.30;10.10;;;17.30;99.90;;;;;;4934893;29;21205;-78
2023/08/29 05:18:04;;;;;;;10.43;9.53;;;17.30;99.90;;;;;;4953134;29;20589;-78
2023/08/29 05:20:30;;;;;;;11.03;9.93;;;17.30;99.90;;;;;;4920732;29;20555;-79
2023/08/29 05:22:56;;;;;;;10.73;9.63;;;17.40;99.90;;;;;;4938417;29;20600;-79
2023/08/29 05:25:22;;;;;;;10.67;9.67;;;17.40;99.90;;;;;;4935228;29;20227;-78
2023/08/29 05:27:48;;;;;;;9.90;8.90;;;17.40;99.90;;;;;;4957958;29;20232;-79
2023/08/29 05:30:14;;;;;;;12.30;9.93;;;17.40;99.90;;;;;;4945537;29;20592;-79
2023/08/29 05:32:40;;;;;;;10.93;10.03;;;17.40;99.90;;;;;;4962560;29;20708;-79
2023/08/29 05:35:07;;;;;;;10.00;8.90;;;17.40;99.90;;;;;;4950316;29;20181;-79
2023/08/29 05:37:33;;;;;;;10.13;9.30;;;17.50;99.90;;;;;;4950959;29;20181;-79
2023/08/29 05:39:58;;;;;;;10.43;9.53;;;17.50;99.90;;;;;;4953577;29;20632;-79
2023/08/29 05:42:26;;;;;;;9.10;8.33;;;17.50;99.90;;;;;;4968691;29;20604;-79
2023/08/29 05:44:52;;;;;;;9.90;8.90;;;17.50;99.90;;;;;;4949040;29;20598;-79
2023/08/29 05:47:18;;;;;;;10.97;9.57;;;17.60;99.90;;;;;;4936701;29;20624;-79
2023/08/29 05:49:43;;;;;;;9.43;8.47;;;17.60;99.90;;;;;;4935275;29;20181;-79
2023/08/29 05:52:09;;;;;;;10.00;9.17;;;17.70;99.90;;;;;;4935739;29;20215;-78
2023/08/29 05:54:36;;;;;;;10.60;9.60;;;17.70;99.90;;;;;;4937120;29;20784;-79
2023/08/29 05:57:03;;;;;;;11.30;10.20;;;17.80;99.90;;;;;;4951902;29;20181;-78
2023/08/29 05:59:29;;;;;;;10.40;9.40;;;17.80;99.90;;;;;;4935350;29;20589;-79
2023/08/29 06:01:55;;;;;;;10.67;9.60;;;17.90;99.90;;;;;;4950599;29;20749;-79
2023/08/29 06:04:21;;;;;;;10.87;9.57;;;17.90;99.90;;;;;;4937535;29;20637;-79
2023/08/29 06:06:50;;;;;;;10.60;9.53;;;17.90;99.90;;;;;;4958718;29;20200;-79
2023/08/29 06:09:17;;;;;;;9.67;8.77;;;18.00;99.90;;;;;;4941257;29;20177;-79
2023/08/29 06:11:43;;;;;;;11.00;9.90;;;18.00;99.90;;;;;;4940323;29;20657;-79
2023/08/29 06:14:09;;;;;;;11.43;10.23;;;18.10;99.90;;;;;;4958068;29;20645;-79
2023/08/29 06:16:34;;;;;;;10.87;9.80;;;18.10;99.90;;;;;;4947061;29;20178;-79
2023/08/29 06:19:00;;;;;;;10.90;9.90;;;18.20;99.90;;;;;;4947478;29;20248;-80
2023/08/29 06:21:26;;;;;;;9.57;8.67;;;18.20;99.90;;;;;;4946030;29;20217;-79
2023/08/29 06:23:51;;;;;;;9.30;8.40;;;18.30;99.90;;;;;;4945126;29;20241;-79
2023/08/29 06:26:17;;;;;;;11.37;10.27;;;18.30;99.90;;;;;;4947179;29;20181;-79
2023/08/29 06:28:43;;;;;;;10.57;9.57;;;18.40;99.90;;;;;;4943818;29;20260;-79
2023/08/29 06:31:08;;;;;;;13.50;10.20;;;18.40;99.90;;;;;;4947714;29;20204;-79
2023/08/29 06:33:35;;;;;;;16.83;13.00;;;18.50;99.90;;;;;;4943564;29;20213;-79
2023/08/29 06:36:01;;;;;;;11.53;10.50;;;18.60;99.90;;;;;;4946675;29;20192;-79
2023/08/29 06:38:27;;;;;;;10.07;9.07;;;18.60;99.90;;;;;;4929472;29;20618;-79
2023/08/29 06:40:56;;;;;;;11.70;9.73;;;18.70;99.90;;;;;;4954145;29;20208;-79
2023/08/29 06:43:25;;;;;;;10.97;10.07;;;18.80;99.90;;;;;;4943383;29;21008;-79
2023/08/29 06:45:51;;;;;;;11.97;10.97;;;18.90;99.90;;;;;;4936313;29;20604;-77
2023/08/29 06:48:18;;;;;;;14.50;10.63;;;18.90;99.90;;;;;;4935805;29;20588;-77
2023/08/29 06:50:46;;;;;;;12.40;11.27;;;19.00;99.90;;;;;;4935988;29;20629;-77
2023/08/29 06:53:12;;;;;;;12.93;11.87;;;19.10;99.90;;;;;;4933333;29;20668;-77
2023/08/29 06:55:37;;;;;;;14.40;12.97;;;19.10;99.90;;;;;;4938091;29;20590;-77
2023/08/29 06:58:07;;;;;;;20.80;14.53;;;19.20;99.90;;;;;;4941975;29;20181;-77
2023/08/29 07:00:33;;;;;;;15.73;13.97;;;19.30;99.90;;;;;;4922935;29;20177;-77
2023/08/29 07:03:00;;;;;;;15.47;13.83;;;19.30;99.90;;;;;;4934076;29;20608;-77
2023/08/29 07:05:27;;;;;;;15.20;13.70;;;19.50;99.90;;;;;;4937369;29;20603;-77
2023/08/29 07:07:53;;;;;;;17.07;15.47;;;19.60;99.90;;;;;;4937262;29;20679;-77
2023/08/29 07:10:19;;;;;;;16.73;15.17;;;19.70;99.90;;;;;;4932381;29;20615;-76
2023/08/29 07:12:45;;;;;;;15.77;14.37;;;19.80;99.90;;;;;;4932517;29;20636;-76
2023/08/29 07:15:11;;;;;;;16.33;14.53;;;19.90;99.90;;;;;;4933808;29;20593;-76
2023/08/29 07:17:37;;;;;;;16.50;14.50;;;20.00;99.90;;;;;;4935430;29;20600;-77
2023/08/29 07:20:08;;;;;;;16.07;14.50;;;20.00;99.90;;;;;;4922835;29;20185;-76
2023/08/29 07:22:36;;;;;;;16.60;15.00;;;20.00;99.90;;;;;;4936153;29;20201;-76
2023/08/29 07:25:03;;;;;;;17.57;15.97;;;20.10;99.90;;;;;;4936955;29;20597;-77
2023/08/29 07:27:30;;;;;;;17.63;15.90;;;20.10;99.90;;;;;;4937825;29;20600;-76
2023/08/29 07:29:55;;;;;;;17.50;16.00;;;20.20;99.90;;;;;;4936182;29;20601;-77
2023/08/29 07:32:21;;;;;;;17.17;15.47;;;20.20;99.90;;;;;;4929168;29;20668;-76
2023/08/29 07:34:47;;;;;;;16.90;15.40;;;20.30;99.90;;;;;;4937731;29;20528;-77
2023/08/29 07:37:13;;;;;;;16.67;15.20;;;20.40;99.90;;;;;;4937785;29;20669;-77
2023/08/29 07:39:38;;;;;;;16.87;15.37;;;20.40;99.90;;;;;;4934871;29;20641;-77
2023/08/29 07:42:04;;;;;;;15.90;14.50;;;20.50;99.90;;;;;;4920009;29;20208;-77
2023/08/29 07:44:30;;;;;;;14.60;13.20;;;20.60;99.90;;;;;;4936362;29;20259;-77
2023/08/29 07:46:56;;;;;;;14.67;13.33;;;20.60;99.90;;;;;;4920448;29;20653;-77
2023/08/29 07:49:22;;;;;;;13.40;12.10;;;20.70;99.90;;;;;;4932382;29;20598;-77
2023/08/29 07:51:51;;;;;;;14.33;12.33;;;20.80;99.90;;;;;;4935364;29;20220;-76
2023/08/29 07:54:17;;;;;;;12.07;11.03;;;20.90;99.90;;;;;;4938008;29;20181;-77
2023/08/29 07:56:42;;;;;;;16.90;15.40;;;21.00;99.90;;;;;;4938053;29;20612;-77
2023/08/29 07:59:09;;;;;;;21.00;18.87;;;21.10;99.90;;;;;;4939005;29;20658;-77
2023/08/29 08:01:35;;;;;;;19.60;17.70;;;21.10;99.90;;;;;;4934599;29;20205;-77
2023/08/29 08:04:03;;;;;;;20.73;18.83;;;21.10;99.90;;;;;;4935553;29;20589;-77
2023/08/29 08:06:29;;;;;;;20.27;18.47;;;21.10;99.90;;;;;;4933152;29;20615;-77
2023/08/29 08:08:55;;;;;;;22.73;20.53;;;21.10;99.90;;;;;;4937400;29;20584;-76
2023/08/29 08:11:21;;;;;;;23.07;20.97;;;21.10;99.90;;;;;;4935085;29;21225;-76
2023/08/29 08:13:47;;;;;;;24.67;22.37;;;21.10;99.90;;;;;;4936476;29;20177;-77
2023/08/29 08:16:12;;;;;;;26.30;23.80;;;21.10;99.90;;;;;;4933420;29;20605;-76
2023/08/29 08:18:38;;;;;;;24.83;22.53;;;21.10;99.90;;;;;;4935321;29;20185;-76
2023/08/29 08:21:05;;;;;;;25.47;22.97;;;21.10;99.90;;;;;;4919247;29;20241;-76
2023/08/29 08:23:31;;;;;;;23.67;21.23;;;21.20;99.90;;;;;;4936712;29;20177;-76
2023/08/29 08:25:56;;;;;;;23.10;20.50;;;21.20;99.90;;;;;;4936624;29;20623;-77
2023/08/29 08:28:22;;;;;;;23.00;20.83;;;21.20;99.90;;;;;;4935572;29;21162;-77
2023/08/29 08:30:48;;;;;;;27.30;20.70;;;21.30;99.90;;;;;;4938114;29;20205;-77
2023/08/29 08:33:14;;;;;;;22.30;20.10;;;21.30;99.90;;;;;;4935084;29;20268;-77
2023/08/29 08:35:40;;;;;;;23.47;21.20;;;21.50;99.90;;;;;;4936245;29;20604;-76
2023/08/29 08:38:07;;;;;;;21.03;19.20;;;21.60;99.90;;;;;;4936839;29;20310;-76
2023/08/29 08:40:36;;;;;;;21.73;19.60;;;21.70;99.90;;;;;;4935091;29;20604;-77
2023/08/29 08:43:04;;;;;;;23.03;20.83;;;21.80;99.90;;;;;;4936188;29;20624;-76
2023/08/29 08:45:30;;;;;;;19.53;17.53;;;21.90;99.90;;;;;;4932002;29;20610;-76
2023/08/29 08:47:58;;;;;;;19.40;17.57;;;22.10;99.90;;;;;;4932551;29;20628;-77
2023/08/29 08:50:24;;;;;;;17.27;15.50;;;22.20;99.90;;;;;;4934388;29;21162;-76
2023/08/29 08:52:51;;;;;;;16.40;14.80;;;22.30;99.90;;;;;;4927228;29;20734;-76
2023/08/29 08:55:17;;;;;;;17.30;15.50;;;22.50;99.90;;;;;;4935927;29;20600;-76
2023/08/29 08:57:43;;;;;;;17.40;15.80;;;22.60;99.90;;;;;;4936013;29;21213;-77
2023/08/29 09:00:09;;;;;;;16.07;14.57;;;22.80;99.90;;;;;;4935531;29;20588;-77
2023/08/29 09:02:39;;;;;;;14.70;13.30;;;23.00;99.90;;;;;;4921739;29;21237;-76
2023/08/29 09:05:05;;;;;;;15.70;14.23;;;23.20;99.90;;;;;;4933664;29;21270;-77
2023/08/29 09:07:31;;;;;;;14.70;13.27;;;23.40;99.90;;;;;;4933959;29;21154;-76
2023/08/29 09:10:15;;;;;;;17.57;15.83;;;23.60;99.90;;;;;;4935340;29;20600;-76
2023/08/29 09:12:50;;;;;;;16.00;14.60;;;23.80;99.90;;;;;;4924205;29;20240;-76
2023/08/29 09:15:19;;;;;;;14.30;12.90;;;24.00;99.90;;;;;;4934398;29;20592;-76
2023/08/29 09:17:45;;;;;;;14.60;13.27;;;24.20;99.90;;;;;;4931103;29;20639;-77
2023/08/29 09:20:11;;;;;;;15.13;13.60;;;24.30;99.90;;;;;;4932024;29;20629;-76
2023/08/29 09:22:41;;;;;;;15.90;14.53;;;24.40;99.90;;;;;;4935376;29;20200;-76
2023/08/29 09:25:06;;;;;;;16.00;14.60;;;24.50;99.90;;;;;;4934156;29;21201;-76
2023/08/29 09:27:47;;;;;;;15.97;14.47;;;24.50;99.90;;;;;;4934392;29;20585;-76
2023/08/29 09:30:15;;;;;;;15.53;14.13;;;24.60;99.90;;;;;;4934509;29;20745;-76
2023/08/29 09:32:46;;;;;;;15.23;13.93;;;24.70;99.90;;;;;;4933704;29;20698;-76
2023/08/29 09:35:16;;;;;;;15.73;14.40;;;24.80;99.90;;;;;;4935216;29;20936;-76
2023/08/29 09:37:50;;;;;;;15.17;13.57;;;24.80;99.90;;;;;;4933679;29;20581;-76
2023/08/29 09:40:20;;;;;;;16.97;15.47;;;24.90;99.90;;;;;;4931108;29;20601;-76
2023/08/29 09:43:02;;;;;;;16.90;15.30;;;24.90;99.90;;;;;;4934120;29;20692;-76
2023/08/29 09:45:32;;;;;;;14.97;13.80;;;24.90;99.90;;;;;;4927226;29;20588;-76
2023/08/29 09:48:17;;;;;;;18.00;16.50;;;24.90;99.90;;;;;;4930615;29;20688;-76
2023/08/29 09:50:43;;;;;;;16.50;14.90;;;24.90;99.90;;;;;;4930210;29;20632;-77
2023/08/29 09:53:10;;;;;;;14.80;13.50;;;24.90;99.90;;;;;;4934566;29;20687;-76
2023/08/29 09:56:07;;;;;;;17.33;15.90;;;25.00;99.90;;;;;;4932741;29;20736;-76
2023/08/29 09:58:33;;;;;;;14.80;13.50;;;25.10;99.90;;;;;;4929332;29;20739;-76
2023/08/29 10:00:59;;;;;;;17.07;15.47;;;25.20;99.90;;;;;;4929860;29;21217;-76
2023/08/29 10:03:26;;;;;;;15.73;14.40;;;25.30;99.90;;;;;;4933368;29;21243;-76
2023/08/29 10:05:55;;;;;;;15.80;14.30;;;25.40;99.90;;;;;;4934697;29;20605;-76
2023/08/29 10:08:31;;;;;;;16.30;14.70;;;25.60;99.90;;;;;;4932911;29;20596;-77
2023/08/29 10:10:59;;;;;;;16.47;14.87;;;25.70;99.90;;;;;;4933120;29;20640;-76
2023/08/29 10:13:25;;;;;;;17.90;16.30;;;26.00;99.90;;;;;;4934323;29;20651;-76
2023/08/29 10:15:52;;;;;;;16.67;15.27;;;26.20;99.90;;;;;;4925620;29;20604;-77
2023/08/29 10:18:18;;;;;;;15.20;13.90;;;26.40;99.90;;;;;;4934384;29;20589;-76
2023/08/29 10:20:45;;;;;;;17.63;16.07;;;26.60;99.90;;;;;;4933236;29;21218;-77
2023/08/29 10:23:15;;;;;;;17.57;15.97;;;26.70;99.90;;;;;;4934269;29;20601;-76
2023/08/29 10:25:42;;;;;;;16.50;15.20;;;26.80;99.90;;;;;;4934400;29;20599;-76
2023/08/29 10:28:10;;;;;;;16.43;14.90;;;26.80;99.90;;;;;;4932737;29;20617;-77
2023/08/29 10:30:40;;;;;;;17.07;15.73;;;26.90;99.90;;;;;;4928488;29;20608;-76
2023/08/29 10:33:07;;;;;;;15.70;14.40;;;27.00;99.90;;;;;;4930910;29;20652;-77
2023/08/29 10:35:33;;;;;;;14.27;12.97;;;27.10;99.90;;;;;;4932810;29;20603;-74
2023/08/29 10:38:09;;;;;;;15.17;13.70;;;27.10;99.90;;;;;;4932875;29;21161;-76
2023/08/29 10:40:35;;;;;;;15.53;14.23;;;27.10;99.90;;;;;;4932617;29;20599;-76
2023/08/29 10:43:02;;;;;;;16.43;15.07;;;27.20;99.90;;;;;;4929565;29;20645;-76
2023/08/29 10:45:47;;;;;;;16.30;14.90;;;27.10;99.90;;;;;;4926641;29;20680;-77
2023/08/29 10:48:39;;;;;;;16.63;15.33;;;27.10;99.90;;;;;;4933918;29;20596;-77
2023/08/29 10:51:12;;;;;;;15.93;14.43;;;27.10;99.90;;;;;;4932859;29;20679;-76
2023/08/29 10:53:47;;;;;;;15.17;13.83;;;27.10;99.90;;;;;;4948409;29;20751;-76
2023/08/29 10:56:13;;;;;;;12.40;11.20;;;27.00;99.90;;;;;;4948412;28;20614;-76
2023/08/29 10:58:45;;;;;;;12.30;11.30;;;26.80;99.90;;;;;;4933325;29;20596;-76
2023/08/29 11:01:33;;;;;;;12.20;11.10;;;26.70;99.90;;;;;;4931356;29;21190;-76
2023/08/29 11:04:13;;;;;;;11.17;10.03;;;26.60;99.90;;;;;;4929374;29;20605;-77
2023/08/29 11:06:53;;;;;;;9.93;8.57;;;26.50;99.90;;;;;;4926512;29;20908;-76
2023/08/29 11:09:21;;;;;;;9.70;8.70;;;26.40;99.90;;;;;;4933183;29;20639;-76
2023/08/29 11:12:12;;;;;;;9.17;8.40;;;26.30;99.90;;;;;;4932116;29;21115;-77
2023/08/29 11:15:04;;;;;;;9.37;8.50;;;26.10;99.90;;;;;;4932081;29;20601;-76
2023/08/29 11:17:31;;;;;;;9.70;8.70;;;25.90;99.90;;;;;;4923495;29;20622;-76
2023/08/29 11:20:02;;;;;;;10.70;9.70;;;25.70;99.90;;;;;;4932076;29;20608;-76
2023/08/29 11:22:29;;;;;;;8.63;7.90;;;25.50;99.90;;;;;;4933327;29;20731;-76
2023/08/29 11:24:56;;;;;;;10.47;9.00;;;25.30;99.90;;;;;;4933227;29;20604;-77
2023/08/29 11:27:23;;;;;;;10.17;9.17;;;25.00;99.90;;;;;;4949029;29;20604;-76
2023/08/29 11:29:49;;;;;;;9.23;8.37;;;24.90;99.90;;;;;;4933621;29;21162;-77
2023/08/29 11:32:17;;;;;;;12.73;8.30;;;24.70;99.90;;;;;;4932629;29;20700;-77
2023/08/29 11:34:43;;;;;;;9.10;8.27;;;24.50;99.90;;;;;;4934288;29;20588;-77
2023/08/29 11:37:12;;;;;;;10.40;9.40;;;24.40;99.90;;;;;;4932181;29;20595;-76
2023/08/29 11:39:38;;;;;;;9.07;8.27;;;24.30;99.90;;;;;;4933113;29;20936;-76
2023/08/29 11:42:04;;;;;;;8.27;7.43;;;24.30;99.90;;;;;;4945727;29;20631;-77
2023/08/29 11:44:33;;;;;;;8.40;7.60;;;24.20;99.90;;;;;;4949812;29;20199;-76
2023/08/29 11:47:00;;;;;;;8.07;7.27;;;24.20;99.90;;;;;;4955665;29;20585;-77
2023/08/29 11:49:27;;;;;;;8.10;7.30;;;24.20;99.90;;;;;;4949280;29;20584;-77
2023/08/29 11:51:53;;;;;;;7.33;6.63;;;24.20;99.90;;;;;;4931731;29;20660;-77
2023/08/29 11:54:39;;;;;;;7.47;6.77;;;24.10;99.90;;;;;;4947954;29;21193;-77
2023/08/29 11:57:06;;;;;;;7.80;6.47;;;23.90;99.90;;;;;;4934700;29;20600;-77
2023/08/29 11:59:32;;;;;;;7.63;6.93;;;23.90;99.90;;;;;;4932764;29;20600;-77
2023/08/29 12:01:58;;;;;;;9.67;8.70;;;23.90;99.90;;;;;;4935164;29;21071;-78
2023/08/29 12:04:24;;;;;;;12.43;11.40;;;24.00;99.90;;;;;;4934024;29;20601;-77
2023/08/29 12:06:49;;;;;;;12.93;11.77;;;24.10;99.90;;;;;;4935377;29;20181;-77
2023/08/29 12:09:22;;;;;;;13.47;12.27;;;24.20;99.90;;;;;;4936453;29;20180;-77
2023/08/29 12:11:48;;;;;;;11.70;10.70;;;24.40;99.90;;;;;;4937218;29;20236;-77
2023/08/29 12:14:14;;;;;;;11.17;10.27;;;24.80;99.90;;;;;;4937763;29;20620;-77
2023/08/29 12:16:39;;;;;;;11.53;10.60;;;25.00;99.90;;;;;;4936771;29;20181;-77
2023/08/29 12:19:13;;;;;;;10.70;9.70;;;25.30;99.90;;;;;;4937550;29;20173;-77
2023/08/29 12:21:39;;;;;;;10.17;9.27;;;25.50;99.90;;;;;;4928741;29;20204;-77
2023/08/29 12:24:10;;;;;;;9.20;8.40;;;25.60;99.90;;;;;;4938380;29;20592;-76
2023/08/29 12:26:36;;;;;;;9.67;8.87;;;25.50;99.90;;;;;;4934895;29;20177;-77
2023/08/29 12:29:02;;;;;;;9.83;9.03;;;25.50;99.90;;;;;;4927090;29;20975;-77
2023/08/29 12:32:13;;;;;;;8.80;7.97;;;25.40;99.90;;;;;;4930313;29;20260;-77
2023/08/29 12:34:41;;;;;;;8.70;8.00;;;25.20;99.90;;;;;;4937337;29;20981;-77
2023/08/29 12:37:38;;;;;;;8.20;6.67;;;25.00;99.90;;;;;;4941365;29;20933;-77
2023/08/29 12:40:05;;;;;;;7.03;6.40;;;24.80;99.90;;;;;;4934891;29;20693;-77
2023/08/29 12:42:37;;;;;;;6.23;5.33;;;24.70;99.90;;;;;;4936453;29;20624;-77
2023/08/29 12:45:04;;;;;;;5.20;4.80;;;24.50;99.90;;;;;;4934367;29;20608;-77
2023/08/29 12:47:29;;;;;;;4.70;4.20;;;24.30;99.90;;;;;;4935644;29;20657;-77